West Lafayette, IN (47906)

5:38 PM EDT on September 04, 2015 (GMT -0400)
APRSWXNET | | Change Station
CLOSE
Current Station
Personal Weather Station
Location: Montmorenci, IN
Elevation: 666 ft
Nearby Weather Stations

Elev 666 ft 40.44 °N, 87.03 °W | Updated 22 minutes ago

Partly Cloudy
Partly Cloudy
83 °F
Feels Like 87 °F
N
0
Wind Variable Wind from ENE
Gusts 2.0 mph

Today
High -- | Low -- °F
--% Chance of Precip.
Yesterday
High -- | Low -- °F
Precip. -- in
7:17 AM 8:15 PM
Waning Gibbous, 56% visible
Pressure 30.01 in
Visibility 10.0 miles
Clouds Few 8000 ft
Scattered Clouds 10000 ft
Heat Index 87 °F
Dew Point 70 °F
Humidity 66%
Rainfall in
Snow Depth Not available.
UV 3 out of 12
Pollen 10.40 out of 12
Air Quality Not available.
Flu Activity Not available.
SPECI KLAF 042105Z 06011KT 10SM FEW080 SCT100 27/18 A3001 RMK AO2 WSHFT 2045 T02670178
Pressure 30.01 in
Visibility 10.0 miles
Clouds Few 8000 ft
Scattered Clouds 10000 ft
Heat Index 87 °F
Dew Point 70 °F
Humidity 66%
Rainfall in
Snow Depth Not available.
UV 3 out of 12
Pollen 10.40 out of 12
Air Quality Not available.
Flu Activity Not available.
SPECI KLAF 042105Z 06011KT 10SM FEW080 SCT100 27/18 A3001 RMK AO2 WSHFT 2045 T02670178

10-Day Weather Forecast

×

Almanac

Astronomy

Sep. 04, 2015 Rise Set
Actual Time
Civil Twilight
Nautical Twilight
Astronomical Twilight
Moon
Length of Visible Light
Length of Day
Tomorrow will be .
, % of the Moon is Illuminated

Today's Extremes

State Highs State Lows

Community

WunderPhotos

Upload Photos

1,852,297 photos uploaded!

WunderBlogs® & News

Nearby

Air Quality

  Air Quality AQ Index Pollutant
Not available.

Snow Depth

Station Depth Elevation

Earthquake Activity

City Distance Mag. Time & Date
Minimum magnitude displayed is 2.5.

Coastal Water Temperatures

Place Temperature

Stations

Nearby Weather Stations

Station Location Temp. Windchill Dew Point Humidity Wind Precip. Elev Updated Type